WetterOnline ( http://www.wetteronline.de )

Wetter aktuell Magdeburg

Aktuelles Wetter: Magdeburg (85m)

6-stündlich | Neueste Meldungen
Ortszeit Temperatur Wetter
Sa, 22.09. 2:00 10.7° C leicht bewölkt
Fr, 21.09. 20:00 13.8° C bedeckt
Fr, 21.09. 14:00 27.2° C bedeckt
Fr, 21.09. 8:00 16.0° C wolkig
Fr, 21.09. 2:00 16.1° C wolkig
Do, 20.09. 20:00 21.7° C bewölkt
Do, 20.09. 14:00 27.4° C leicht bewölkt
Do, 20.09. 8:00 15.8° C wolkig
Ortszeit Temperatur Wetter
Sa, 22.09. 2:30 11.1° C fast wolkenlos
Sa, 22.09. 2:20 11.1° C fast wolkenlos
Sa, 22.09. 2:10 10.8° C leicht bewölkt
Sa, 22.09. 2:00 10.7° C leicht bewölkt
Sa, 22.09. 1:40 10.5° C wolkenlos
Sa, 22.09. 1:30 10.8° C wolkenlos
Sa, 22.09. 1:00 11.6° C wolkenlos
Sa, 22.09. 0:30 11.6° C wolkenlos
Sa, 22.09. 0:00 11.8° C wolkenlos
Fr, 21.09. 23:30 12.1° C wolkenlos
Ortszeit Relative Feuchte Sichtweite
Sa, 22.09. 2:00 72% 70 km
Fr, 21.09. 20:00 77% 22 km
Fr, 21.09. 14:00 37% 29 km
Fr, 21.09. 8:00 69% 30 km
Fr, 21.09. 2:00 64% 50 km
Do, 20.09. 20:00 51% 45 km
Do, 20.09. 14:00 35% 30 km
Do, 20.09. 8:00 78% 20 km
Ortszeit Relative Feuchte Sichtweite
Sa, 22.09. 2:30 69% 70 km
Sa, 22.09. 2:20 69% -
Sa, 22.09. 2:10 71% -
Sa, 22.09. 2:00 72% 70 km
Sa, 22.09. 1:40 72% -
Sa, 22.09. 1:30 69% 70 km
Sa, 22.09. 1:00 66% 70 km
Sa, 22.09. 0:30 68% 70 km
Sa, 22.09. 0:00 68% 70 km
Fr, 21.09. 23:30 66% 70 km
Ortszeit Niederschlagsmenge Niederschlagsart
Sa, 22.09. 2:00 0.0 l/m2 in 6 Std. -
Fr, 21.09. 20:00 2 l/m2 in 12 Std. Regen
Fr, 21.09. 14:00 0.0 l/m2 in 6 Std. -
Fr, 21.09. 8:00 0.0 l/m2 in 12 Std. -
Fr, 21.09. 2:00 0.0 l/m2 in 6 Std. -
Do, 20.09. 20:00 0.0 l/m2 in 12 Std. -
Do, 20.09. 14:00 0.0 l/m2 in 6 Std. -
Do, 20.09. 8:00 0.0 l/m2 in 12 Std. -
Ortszeit Niederschlagsmenge Niederschlagsart
Sa, 22.09. 2:30 0.0 l/m2 in 1 Std. -
Sa, 22.09. 2:20 keine Meldung -
Sa, 22.09. 2:10 keine Meldung -
Sa, 22.09. 2:00 0.0 l/m2 in 1 Std. -
Sa, 22.09. 1:40 keine Meldung -
Sa, 22.09. 1:30 0.0 l/m2 in 1 Std. -
Sa, 22.09. 1:00 0.0 l/m2 in 1 Std. -
Sa, 22.09. 0:30 0.0 l/m2 in 1 Std. -
Sa, 22.09. 0:00 0.0 l/m2 in 1 Std. -
Fr, 21.09. 23:30 0.0 l/m2 in 1 Std. -
Ortszeit Stärke Spitze Richtung
km/h Bft. km/h Grad Sektor
Sa, 22.09. 2:00 11 2 29 220° SW
Fr, 21.09. 20:00 14 3 54 250° W
Fr, 21.09. 14:00 22 4 54 220° SW
Fr, 21.09. 8:00 6 1 17 170° S
Fr, 21.09. 2:00 4 1 11 170° S
Do, 20.09. 20:00 0 0 40 - -
Do, 20.09. 14:00 20 4 39 210° SW
Do, 20.09. 8:00 4 1 18 180° S
Ortszeit Stärke Spitze Richtung
km/h Bft. km/h Grad Sektor
Sa, 22.09. 2:30 11 2 18 230° SW
Sa, 22.09. 2:20 11 2 - 230° SW
Sa, 22.09. 2:10 11 2 - 220° SW
Sa, 22.09. 2:00 11 2 18 220° SW
Sa, 22.09. 1:40 11 2 - 220° SW
Sa, 22.09. 1:30 11 2 18 220° SW
Sa, 22.09. 1:00 13 3 24 230° SW
Sa, 22.09. 0:30 14 3 22 220° SW
Sa, 22.09. 0:00 13 3 26 220° SW
Fr, 21.09. 23:30 11 2 25 230° SW
Ortszeit Untergrenze Bedeckung Gattung
total tief tief mittel hoch
Sa, 22.09. 2:00 1470 m 2/8 3/8 - - -
Fr, 21.09. 20:00 3900 m 8/8 8/8 - - -
Fr, 21.09. 14:00 3600 m 8/8 8/8 - - -
Fr, 21.09. 8:00 9000 m 7/8 0/8 - - -
Fr, 21.09. 2:00 7800 m 8/8 0/8 - - -
Do, 20.09. 20:00 6000 m 8/8 5/8 - - -
Do, 20.09. 14:00 10500 m 8/8 0/8 - - -
Do, 20.09. 8:00 5100 m 8/8 3/8 - - -
Ortszeit Bedeckungsgrad in Achtel und Wolkenuntergrenze
Sa, 22.09. 2:30 1(1440m)
Sa, 22.09. 2:20 1(1440m) 1(1800m)
Sa, 22.09. 2:10 1(1470m) 2(1800m)
Sa, 22.09. 2:00 2(1470m) 3(1800m)
Sa, 22.09. 1:40 keine Wolken
Sa, 22.09. 1:30 keine Wolken
Sa, 22.09. 1:00 keine Wolken
Sa, 22.09. 0:30 keine Wolken
Sa, 22.09. 0:00 keine Wolken
Fr, 21.09. 23:30 keine Wolken
Ortszeit Luftdruck NN (hPa) Tendenz (hPa in 3 Std.)
Sa, 22.09. 2:00 1014 + 1,2
Fr, 21.09. 20:00 1010 + 1,9
Fr, 21.09. 14:00 1004 - 1,8
Fr, 21.09. 8:00 1008 - 2,5
Fr, 21.09. 2:00 1012 - 1,6
Do, 20.09. 20:00 1014 - 0,7
Do, 20.09. 14:00 1016 - 2,2
Do, 20.09. 8:00 1019 + 0,4
Ortszeit Luftdruck NN (hPa) Tendenz (hPa in 3 Std.)
Sa, 22.09. 2:30 1014 + 1,1
Sa, 22.09. 2:20 1014 keine Meldung
Sa, 22.09. 2:10 1014 keine Meldung
Sa, 22.09. 2:00 1014 + 1,2
Sa, 22.09. 1:40 1014 keine Meldung
Sa, 22.09. 1:30 1014 + 1,4
Sa, 22.09. 1:00 1014 + 1,6
Sa, 22.09. 0:30 1014 + 2,0
Sa, 22.09. 0:00 1013 + 2,4
Fr, 21.09. 23:30 1013 + 2,7
Ortszeit Schneehöhe (cm)
Sa, 22.09. 2:00 -
Fr, 21.09. 20:00 -
Fr, 21.09. 14:00 -
Fr, 21.09. 8:00 -
Fr, 21.09. 2:00 -
Do, 20.09. 20:00 -
Do, 20.09. 14:00 -
Do, 20.09. 8:00 -
Ortszeit Schneehöhe (cm)
Sa, 22.09. 2:30 -
Sa, 22.09. 2:20 -
Sa, 22.09. 2:10 -
Sa, 22.09. 2:00 -
Sa, 22.09. 1:40 -
Sa, 22.09. 1:30 -
Sa, 22.09. 1:00 -
Sa, 22.09. 0:30 -
Sa, 22.09. 0:00 -
Fr, 21.09. 23:30 -
Link zu dieser Seite / Seite empfehlen

Das Wetter in ...